Time;durP1;ratioP1;P1;durP2;ratioP2;P2;SDS_P1;SDS_P2;PMS_P1;PMS_P2;Temp;Humidity;BMP_temperature;BMP_pressure;BME280_temperature;BME280_humidity;BME280_pressure;Samples;Min_cycle;Max_cycle;Signal;HPM_P1;HPM_P2
2021/05/18 00:00:14;;;;;;;23.03;13.10;;;;;;;;;;4387647;32;20142;-71
2021/05/18 00:02:40;;;;;;;27.77;13.30;;;;;;;;;;4383960;32;20268;-71
2021/05/18 00:05:07;;;;;;;30.98;13.40;;;;;;;;;;4383155;32;20216;-71
2021/05/18 00:07:32;;;;;;;32.28;14.23;;;;;;;;;;4370085;32;20196;-71
2021/05/18 00:12:42;;;;;;;27.92;13.30;;;;;;;;;;4382929;32;20730;-71
2021/05/18 00:15:12;;;;;;;28.77;12.68;;;;;;;;;;4368109;32;20165;-71
2021/05/18 00:17:37;;;;;;;27.45;12.25;;;;;;;;;;4380824;32;20197;-71
2021/05/18 00:20:04;;;;;;;26.30;12.77;;;;;;;;;;4380351;32;21031;-71
2021/05/18 00:22:30;;;;;;;24.77;12.90;;;;;;;;;;4381438;32;20193;-71
2021/05/18 00:24:55;;;;;;;29.15;13.68;;;;;;;;;;4378688;32;20164;-71
2021/05/18 00:27:23;;;;;;;24.12;11.85;;;;;;;;;;4379480;32;20176;-71
2021/05/18 00:29:48;;;;;;;29.80;13.00;;;;;;;;;;4379279;32;20268;-72
2021/05/18 00:32:13;;;;;;;28.60;13.88;;;;;;;;;;4378258;32;20142;-71
2021/05/18 00:34:38;;;;;;;25.90;13.40;;;;;;;;;;4379868;32;20137;-71
2021/05/18 00:37:03;;;;;;;25.75;12.68;;;;;;;;;;4385946;32;20242;-71
2021/05/18 00:39:28;;;;;;;27.15;13.13;;;;;;;;;;4384874;32;20154;-72
2021/05/18 00:41:54;;;;;;;28.77;12.25;;;;;;;;;;4383046;32;21356;-70
2021/05/18 00:44:19;;;;;;;28.02;13.38;;;;;;;;;;4369054;32;20269;-71
2021/05/18 00:46:44;;;;;;;31.63;12.80;;;;;;;;;;4384470;32;20225;-71
2021/05/18 00:49:09;;;;;;;32.17;14.40;;;;;;;;;;4382205;32;20245;-70
2021/05/18 00:51:38;;;;;;;33.13;14.60;;;;;;;;;;4396159;32;20252;-71
2021/05/18 00:54:06;;;;;;;32.13;13.82;;;;;;;;;;4398364;32;20187;-70
2021/05/18 00:59:04;;;;;;;30.88;13.48;;;;;;;;;;4383673;32;20207;-70
2021/05/18 01:01:29;;;;;;;25.45;11.93;;;;;;;;;;4382430;32;20607;-70
2021/05/18 01:03:55;;;;;;;30.73;13.45;;;;;;;;;;4382071;32;20142;-70
2021/05/18 01:06:28;;;;;;;26.27;12.25;;;;;;;;;;4381406;32;20145;-71
2021/05/18 01:08:57;;;;;;;34.92;14.07;;;;;;;;;;4380222;32;20164;-70
2021/05/18 01:11:24;;;;;;;40.10;14.20;;;;;;;;;;4381604;32;20259;-71
2021/05/18 01:13:55;;;;;;;28.12;14.57;;;;;;;;;;4379033;32;20145;-71
2021/05/18 01:16:20;;;;;;;32.08;14.70;;;;;;;;;;4379160;32;20142;-71
2021/05/18 01:18:47;;;;;;;37.42;14.82;;;;;;;;;;4391228;32;20570;-71
2021/05/18 01:21:13;;;;;;;34.60;16.15;;;;;;;;;;4394436;32;20199;-71
2021/05/18 01:23:39;;;;;;;35.83;17.12;;;;;;;;;;4394950;32;21002;-71
2021/05/18 01:26:04;;;;;;;41.90;17.15;;;;;;;;;;4394378;32;20141;-70
2021/05/18 01:28:30;;;;;;;41.08;17.42;;;;;;;;;;4385470;32;20158;-70
2021/05/18 01:30:55;;;;;;;38.58;16.80;;;;;;;;;;4378867;32;20172;-70
2021/05/18 01:33:21;;;;;;;42.15;19.12;;;;;;;;;;4369647;32;20177;-71
2021/05/18 01:35:46;;;;;;;42.67;18.30;;;;;;;;;;4386478;32;20146;-71
2021/05/18 01:38:14;;;;;;;46.17;20.75;;;;;;;;;;4394888;32;20149;-71
2021/05/18 01:43:14;;;;;;;44.83;20.17;;;;;;;;;;4405437;32;20133;-71
2021/05/18 01:45:42;;;;;;;53.40;20.27;;;;;;;;;;4405604;32;20145;-71
2021/05/18 01:48:10;;;;;;;51.08;22.70;;;;;;;;;;4404626;32;20284;-71
2021/05/18 01:50:36;;;;;;;49.55;21.40;;;;;;;;;;4402861;32;20186;-71
2021/05/18 01:53:02;;;;;;;51.72;23.08;;;;;;;;;;4403832;32;20233;-71
2021/05/18 01:57:56;;;;;;;51.58;22.80;;;;;;;;;;4401105;32;20157;-71
2021/05/18 02:00:22;;;;;;;62.10;23.92;;;;;;;;;;4383829;32;20265;-71
2021/05/18 02:02:48;;;;;;;54.38;23.52;;;;;;;;;;4398084;32;20171;-71
2021/05/18 02:05:14;;;;;;;62.22;26.20;;;;;;;;;;4398458;32;20547;-71
2021/05/18 02:07:40;;;;;;;60.70;24.77;;;;;;;;;;4399444;32;20264;-71
2021/05/18 02:10:07;;;;;;;67.03;24.67;;;;;;;;;;4399488;32;20142;-71
2021/05/18 02:12:32;;;;;;;56.22;23.58;;;;;;;;;;4386315;32;20161;-71
2021/05/18 02:15:05;;;;;;;51.88;23.40;;;;;;;;;;4370985;32;20273;-71
2021/05/18 02:17:35;;;;;;;57.10;25.62;;;;;;;;;;4374238;32;20246;-71
2021/05/18 02:25:29;;;;;;;52.60;22.50;;;;;;;;;;4386976;32;20320;-71
2021/05/18 02:27:55;;;;;;;59.38;23.30;;;;;;;;;;4387967;32;20145;-71
2021/05/18 02:30:21;;;;;;;61.37;24.03;;;;;;;;;;4377323;32;20177;-71
2021/05/18 02:32:46;;;;;;;55.45;23.02;;;;;;;;;;4404877;32;20218;-71
2021/05/18 02:35:12;;;;;;;55.65;22.65;;;;;;;;;;4401979;32;20145;-71
2021/05/18 02:37:38;;;;;;;61.22;25.50;;;;;;;;;;4401165;32;20759;-71
2021/05/18 02:40:05;;;;;;;50.40;22.60;;;;;;;;;;4401898;32;20211;-71
2021/05/18 02:42:30;;;;;;;57.05;24.33;;;;;;;;;;4401614;32;20156;-71
2021/05/18 02:45:05;;;;;;;59.78;24.63;;;;;;;;;;4400791;32;20149;-71
2021/05/18 02:50:14;;;;;;;57.58;25.35;;;;;;;;;;4391009;32;20165;-70
2021/05/18 02:52:41;;;;;;;58.95;23.90;;;;;;;;;;4382374;32;20217;-70
2021/05/18 02:55:08;;;;;;;67.37;26.62;;;;;;;;;;4368448;32;20233;-71
2021/05/18 02:57:37;;;;;;;62.08;25.98;;;;;;;;;;4394017;32;20180;-71
2021/05/18 03:00:29;;;;;;;65.12;26.33;;;;;;;;;;4381448;32;20167;-71
2021/05/18 03:02:54;;;;;;;64.30;26.75;;;;;;;;;;4377673;32;20166;-69
2021/05/18 03:05:19;;;;;;;64.97;27.90;;;;;;;;;;4379792;32;20133;-70
2021/05/18 03:07:45;;;;;;;72.82;29.25;;;;;;;;;;4379277;32;20257;-70
2021/05/18 03:10:10;;;;;;;77.93;29.90;;;;;;;;;;4378662;32;20544;-71
2021/05/18 03:12:35;;;;;;;65.35;29.48;;;;;;;;;;4379851;32;20686;-71
2021/05/18 03:15:01;;;;;;;62.17;27.45;;;;;;;;;;4381718;32;20231;-71
2021/05/18 03:17:26;;;;;;;60.03;25.33;;;;;;;;;;4383463;32;20198;-71
2021/05/18 03:19:51;;;;;;;62.97;26.90;;;;;;;;;;4381432;32;20150;-71
2021/05/18 03:22:17;;;;;;;63.85;28.02;;;;;;;;;;4383504;32;20141;-70
2021/05/18 03:24:42;;;;;;;55.75;24.95;;;;;;;;;;4382430;32;20173;-70
2021/05/18 03:27:09;;;;;;;65.03;31.23;;;;;;;;;;4395644;32;20543;-70
2021/05/18 03:29:34;;;;;;;62.20;26.60;;;;;;;;;;4396694;32;20212;-70
2021/05/18 03:34:44;;;;;;;56.50;27.23;;;;;;;;;;4397432;32;20637;-70
2021/05/18 03:39:55;;;;;;;63.50;29.17;;;;;;;;;;4398181;32;20164;-70
2021/05/18 03:42:34;;;;;;;54.65;26.02;;;;;;;;;;4382529;32;20470;-71
2021/05/18 04:12:11;;;;;;;50.25;26.25;;;;;;;;;;4382680;32;20272;-70
2021/05/18 04:17:21;;;;;;;47.53;24.87;;;;;;;;;;4397737;32;20163;-71
2021/05/18 04:20:06;;;;;;;51.50;27.23;;;;;;;;;;4384648;32;20174;-70
2021/05/18 04:22:44;;;;;;;51.50;25.23;;;;;;;;;;4385051;32;20173;-70
2021/05/18 04:25:42;;;;;;;50.25;25.50;;;;;;;;;;4387669;32;20149;-70
2021/05/18 04:39:35;;;;;;;43.83;23.40;;;;;;;;;;4384522;32;20572;-70
2021/05/18 04:42:35;;;;;;;41.47;23.55;;;;;;;;;;4383146;32;20129;-71
2021/05/18 04:53:01;;;;;;;40.55;23.30;;;;;;;;;;4394453;32;20158;-72
2021/05/18 05:00:51;;;;;;;35.60;21.23;;;;;;;;;;4379539;32;20203;-69
2021/05/18 05:08:51;;;;;;;34.50;20.12;;;;;;;;;;4415264;32;20629;-69
2021/05/18 05:16:26;;;;;;;37.78;19.37;;;;;;;;;;4434689;32;20235;-69
2021/05/18 05:18:52;;;;;;;35.70;20.80;;;;;;;;;;4419137;32;20161;-71
2021/05/18 05:21:20;;;;;;;31.45;18.30;;;;;;;;;;4434059;32;20157;-70
2021/05/18 05:23:46;;;;;;;33.15;19.20;;;;;;;;;;4434760;32;20149;-71
2021/05/18 05:26:11;;;;;;;28.23;17.12;;;;;;;;;;4433447;32;20516;-70
2021/05/18 05:28:36;;;;;;;31.33;18.33;;;;;;;;;;4419547;32;20236;-71
2021/05/18 05:31:02;;;;;;;23.27;15.05;;;;;;;;;;4434512;32;20267;-71
2021/05/18 05:33:27;;;;;;;27.67;15.38;;;;;;;;;;4419188;32;20285;-70
2021/05/18 05:35:52;;;;;;;23.92;14.10;;;;;;;;;;4432833;32;20197;-69
2021/05/18 05:38:19;;;;;;;26.60;15.10;;;;;;;;;;4424910;32;20206;-70
2021/05/18 05:40:44;;;;;;;20.80;13.27;;;;;;;;;;4417586;32;20134;-70
2021/05/18 05:43:09;;;;;;;20.25;12.25;;;;;;;;;;4418030;32;20595;-69
2021/05/18 05:45:35;;;;;;;22.60;13.70;;;;;;;;;;4406032;32;20169;-68
2021/05/18 05:48:00;;;;;;;22.87;14.18;;;;;;;;;;4425520;32;20476;-69
2021/05/18 05:50:25;;;;;;;28.02;15.55;;;;;;;;;;4408647;32;20272;-70
2021/05/18 05:52:50;;;;;;;26.73;15.05;;;;;;;;;;4404063;32;20292;-70
2021/05/18 05:55:15;;;;;;;20.17;12.48;;;;;;;;;;4418917;32;20264;-70
2021/05/18 05:57:40;;;;;;;26.05;15.35;;;;;;;;;;4418690;32;20134;-70
2021/05/18 06:00:07;;;;;;;23.58;13.85;;;;;;;;;;4419465;32;20212;-69
2021/05/18 06:02:32;;;;;;;22.25;13.45;;;;;;;;;;4418176;32;20165;-70
2021/05/18 06:04:57;;;;;;;22.00;12.73;;;;;;;;;;4417890;32;20130;-70
2021/05/18 06:07:22;;;;;;;22.85;14.35;;;;;;;;;;4418718;32;20280;-71
2021/05/18 06:09:50;;;;;;;18.25;11.68;;;;;;;;;;4419340;32;20202;-69
2021/05/18 06:12:25;;;;;;;20.20;11.98;;;;;;;;;;4417219;32;20134;-70
2021/05/18 06:50:09;;;;;;;19.12;11.27;;;;;;;;;;4421074;32;20268;-71
2021/05/18 06:52:34;;;;;;;20.58;12.07;;;;;;;;;;4406979;32;20165;-70
2021/05/18 06:54:59;;;;;;;21.80;12.20;;;;;;;;;;4420927;32;20161;-72
2021/05/18 06:57:24;;;;;;;21.85;12.13;;;;;;;;;;4420515;32;20573;-71
2021/05/18 07:00:11;;;;;;;23.17;11.85;;;;;;;;;;4421081;32;20515;-71
2021/05/18 07:02:37;;;;;;;14.32;9.05;;;;;;;;;;4408809;32;20502;-71
2021/05/18 07:05:04;;;;;;;17.62;10.15;;;;;;;;;;4422208;32;20559;-71
2021/05/18 07:07:32;;;;;;;15.73;9.95;;;;;;;;;;4407811;32;20162;-71
2021/05/18 07:09:57;;;;;;;15.93;8.95;;;;;;;;;;4422311;32;20138;-71
2021/05/18 07:12:22;;;;;;;14.02;8.65;;;;;;;;;;4421505;32;20176;-71
2021/05/18 07:14:47;;;;;;;13.43;8.90;;;;;;;;;;4422826;32;20133;-72
2021/05/18 07:17:13;;;;;;;16.03;9.30;;;;;;;;;;4422622;32;20260;-72
2021/05/18 07:19:38;;;;;;;16.55;10.40;;;;;;;;;;4408101;32;20296;-72
2021/05/18 07:22:04;;;;;;;15.95;10.93;;;;;;;;;;4422168;32;20515;-71
2021/05/18 07:24:30;;;;;;;20.52;10.90;;;;;;;;;;4421016;32;20523;-71
2021/05/18 07:26:56;;;;;;;18.00;11.23;;;;;;;;;;4424844;32;20439;-71
2021/05/18 07:29:21;;;;;;;20.48;12.05;;;;;;;;;;4432300;32;20606;-71
2021/05/18 07:31:47;;;;;;;15.23;8.95;;;;;;;;;;4434956;32;20203;-71
2021/05/18 07:34:12;;;;;;;15.13;9.32;;;;;;;;;;4436316;32;20584;-71
2021/05/18 07:36:37;;;;;;;13.02;9.23;;;;;;;;;;4421924;32;20199;-71
2021/05/18 07:39:03;;;;;;;17.10;10.93;;;;;;;;;;4436755;32;20160;-72
2021/05/18 07:41:28;;;;;;;15.07;10.30;;;;;;;;;;4421722;32;20161;-73
2021/05/18 07:43:53;;;;;;;18.00;10.05;;;;;;;;;;4434578;32;20156;-70
2021/05/18 07:46:20;;;;;;;14.23;8.93;;;;;;;;;;4435004;32;20156;-71
2021/05/18 07:59:38;;;;;;;10.43;7.68;;;;;;;;;;4435791;32;20160;-72
2021/05/18 08:07:19;;;;;;;14.60;7.95;;;;;;;;;;4436117;32;20553;-71
2021/05/18 08:09:55;;;;;;;11.12;7.55;;;;;;;;;;4420713;32;20228;-71
2021/05/18 08:12:20;;;;;;;12.77;7.85;;;;;;;;;;4436518;32;20137;-70
2021/05/18 08:17:36;;;;;;;13.60;8.05;;;;;;;;;;4434465;32;20153;-71
2021/05/18 08:20:22;;;;;;;11.38;7.57;;;;;;;;;;4435472;32;20122;-73
2021/05/18 08:48:09;;;;;;;10.50;6.62;;;;;;;;;;4436586;32;20188;-72
2021/05/18 08:56:22;;;;;;;11.10;6.22;;;;;;;;;;4436097;32;20129;-72
2021/05/18 10:14:43;;;;;;;5.40;3.50;;;;;;;;;;4436352;32;20157;-73
2021/05/18 10:26:38;;;;;;;4.32;2.67;;;;;;;;;;4420426;32;20174;-71
2021/05/18 10:36:27;;;;;;;6.05;2.80;;;;;;;;;;4418752;32;20145;-71
2021/05/18 10:39:12;;;;;;;6.97;3.08;;;;;;;;;;4420386;32;20397;-72
2021/05/18 10:41:37;;;;;;;4.47;2.97;;;;;;;;;;4419511;32;20275;-72
2021/05/18 10:44:05;;;;;;;6.50;3.30;;;;;;;;;;4434570;32;20153;-71
2021/05/18 10:46:46;;;;;;;5.45;2.90;;;;;;;;;;4435779;32;20172;-71
2021/05/18 10:49:12;;;;;;;5.70;3.00;;;;;;;;;;4435304;32;20149;-72
2021/05/18 10:51:40;;;;;;;6.03;2.60;;;;;;;;;;4435457;32;20179;-71
2021/05/18 10:54:10;;;;;;;3.70;2.53;;;;;;;;;;4432646;32;20224;-71
2021/05/18 10:59:23;;;;;;;5.78;2.80;;;;;;;;;;4431088;32;20168;-72
2021/05/18 11:01:48;;;;;;;7.18;2.80;;;;;;;;;;4418954;32;20208;-71
2021/05/18 11:04:14;;;;;;;5.15;2.15;;;;;;;;;;4418770;32;20232;-71
2021/05/18 11:06:57;;;;;;;3.87;1.67;;;;;;;;;;4434328;32;20129;-71
2021/05/18 11:09:23;;;;;;;2.42;1.80;;;;;;;;;;4433581;32;20212;-71
2021/05/18 11:11:49;;;;;;;3.12;1.75;;;;;;;;;;4418601;32;20570;-71
2021/05/18 11:14:15;;;;;;;4.75;2.22;;;;;;;;;;4419112;32;20157;-72
2021/05/18 11:16:40;;;;;;;4.28;2.70;;;;;;;;;;4421157;32;20222;-72
2021/05/18 11:19:12;;;;;;;6.40;2.90;;;;;;;;;;4432728;32;20200;-71
2021/05/18 11:21:41;;;;;;;4.05;2.53;;;;;;;;;;4432480;32;20134;-71
2021/05/18 11:24:10;;;;;;;6.43;2.62;;;;;;;;;;4433980;32;20606;-71
2021/05/18 11:26:45;;;;;;;3.35;2.37;;;;;;;;;;4432798;32;20432;-71
2021/05/18 11:29:10;;;;;;;4.72;2.50;;;;;;;;;;4434235;32;20254;-73
2021/05/18 11:31:35;;;;;;;5.73;2.87;;;;;;;;;;4419284;32;20269;-71
2021/05/18 11:34:05;;;;;;;5.90;2.30;;;;;;;;;;4431902;32;20633;-71
2021/05/18 11:36:34;;;;;;;5.28;2.30;;;;;;;;;;4435288;32;20191;-71
2021/05/18 11:39:06;;;;;;;4.37;2.62;;;;;;;;;;4421108;32;20157;-71
2021/05/18 11:41:34;;;;;;;4.68;2.87;;;;;;;;;;4422036;32;20589;-71
2021/05/18 11:43:59;;;;;;;6.30;2.90;;;;;;;;;;4434767;32;20137;-71
2021/05/18 11:46:26;;;;;;;5.65;2.72;;;;;;;;;;4435984;32;20610;-70
2021/05/18 11:49:00;;;;;;;3.75;2.10;;;;;;;;;;4433082;32;20242;-71
2021/05/18 11:51:25;;;;;;;4.22;2.05;;;;;;;;;;4433924;32;20497;-71
2021/05/18 11:53:52;;;;;;;4.28;1.85;;;;;;;;;;4418082;32;20598;-71
2021/05/18 11:56:25;;;;;;;3.60;2.20;;;;;;;;;;4436326;32;20276;-70
2021/05/18 11:58:58;;;;;;;3.72;2.28;;;;;;;;;;4434747;32;20168;-72
2021/05/18 12:01:23;;;;;;;4.72;2.40;;;;;;;;;;4434163;32;20429;-71
2021/05/18 12:03:58;;;;;;;5.62;2.75;;;;;;;;;;4420436;32;20585;-71
2021/05/18 12:06:23;;;;;;;2.55;2.17;;;;;;;;;;4418309;32;20363;-73
2021/05/18 12:08:55;;;;;;;2.83;1.87;;;;;;;;;;4437095;32;20288;-72
2021/05/18 12:11:20;;;;;;;2.67;1.70;;;;;;;;;;4435594;32;20249;-71
2021/05/18 12:13:50;;;;;;;2.53;1.50;;;;;;;;;;4434752;32;20228;-71
2021/05/18 12:16:17;;;;;;;3.58;1.95;;;;;;;;;;4405060;32;20158;-71
2021/05/18 12:18:43;;;;;;;3.95;1.42;;;;;;;;;;4417771;32;20161;-71
2021/05/18 12:21:13;;;;;;;3.42;1.67;;;;;;;;;;4406716;32;20169;-71
2021/05/18 12:23:38;;;;;;;5.78;1.80;;;;;;;;;;4406985;32;20180;-70
2021/05/18 12:26:10;;;;;;;5.03;1.60;;;;;;;;;;4420557;32;20162;-71
2021/05/18 12:28:36;;;;;;;4.55;1.65;;;;;;;;;;4405534;32;20250;-71
2021/05/18 12:31:01;;;;;;;3.05;1.65;;;;;;;;;;4407251;32;20200;-72
2021/05/18 12:33:33;;;;;;;2.20;1.20;;;;;;;;;;4436278;32;20219;-71
2021/05/18 12:36:05;;;;;;;2.70;1.15;;;;;;;;;;4421980;32;20165;-72
2021/05/18 12:38:31;;;;;;;4.03;1.40;;;;;;;;;;4432954;32;20142;-71
2021/05/18 12:41:05;;;;;;;3.92;1.20;;;;;;;;;;4419251;32;20209;-77
2021/05/18 12:43:38;;;;;;;2.62;1.10;;;;;;;;;;4419528;32;20133;-71
2021/05/18 12:46:06;;;;;;;2.42;1.20;;;;;;;;;;4420056;32;20157;-71
2021/05/18 12:48:38;;;;;;;2.85;1.25;;;;;;;;;;4406478;32;20169;-72
2021/05/18 12:51:20;;;;;;;2.80;1.00;;;;;;;;;;4419096;32;20169;-70
2021/05/18 12:53:45;;;;;;;2.90;0.90;;;;;;;;;;4417845;32;20264;-70
2021/05/18 12:56:14;;;;;;;1.87;0.77;;;;;;;;;;4420536;32;20507;-71
2021/05/18 12:58:40;;;;;;;1.83;0.75;;;;;;;;;;4406046;32;20188;-70
2021/05/18 13:01:06;;;;;;;2.30;0.90;;;;;;;;;;4418520;32;20138;-71
2021/05/18 13:03:31;;;;;;;1.95;0.80;;;;;;;;;;4405489;32;20165;-70
2021/05/18 13:05:57;;;;;;;2.90;1.05;;;;;;;;;;4419959;32;20145;-69
2021/05/18 13:08:22;;;;;;;3.12;1.10;;;;;;;;;;4421020;32;20207;-70
2021/05/18 13:13:13;;;;;;;2.58;1.20;;;;;;;;;;4431785;32;20161;-69
2021/05/18 13:15:38;;;;;;;2.00;1.10;;;;;;;;;;4419256;32;20176;-69
2021/05/18 13:18:05;;;;;;;4.32;1.23;;;;;;;;;;4409324;32;20210;-71
2021/05/18 13:20:49;;;;;;;4.32;1.30;;;;;;;;;;4408786;32;20187;-70
2021/05/18 13:23:22;;;;;;;3.47;1.40;;;;;;;;;;4401680;32;20208;-69
2021/05/18 13:28:32;;;;;;;4.22;1.40;;;;;;;;;;4400312;32;20199;-70
2021/05/18 13:30:57;;;;;;;4.33;1.67;;;;;;;;;;4399230;32;20238;-72
2021/05/18 13:33:22;;;;;;;4.22;1.42;;;;;;;;;;4385925;32;20729;-70
2021/05/18 13:35:48;;;;;;;3.57;1.60;;;;;;;;;;4402651;32;20356;-69
2021/05/18 13:38:13;;;;;;;3.50;1.37;;;;;;;;;;4385844;32;20338;-70
2021/05/18 13:40:38;;;;;;;2.92;1.50;;;;;;;;;;4414299;32;20145;-70
2021/05/18 13:43:04;;;;;;;2.70;1.40;;;;;;;;;;4414953;32;20184;-71
2021/05/18 13:45:29;;;;;;;3.08;1.40;;;;;;;;;;4414696;32;20448;-70
2021/05/18 13:47:55;;;;;;;3.58;1.37;;;;;;;;;;4400037;32;20169;-70
2021/05/18 13:50:21;;;;;;;3.47;1.23;;;;;;;;;;4401058;32;20161;-70
2021/05/18 13:52:47;;;;;;;2.17;1.10;;;;;;;;;;4415422;32;20214;-71
2021/05/18 13:55:12;;;;;;;2.00;1.00;;;;;;;;;;4416954;32;20137;-71
2021/05/18 13:57:37;;;;;;;4.20;1.57;;;;;;;;;;4416403;32;20141;-72
2021/05/18 14:00:09;;;;;;;3.47;1.10;;;;;;;;;;4414669;32;20259;-72
2021/05/18 14:02:36;;;;;;;4.53;1.40;;;;;;;;;;4407105;32;20533;-71
2021/05/18 14:05:02;;;;;;;6.40;1.35;;;;;;;;;;4433531;32;20165;-70
2021/05/18 14:10:05;;;;;;;1.50;0.80;;;;;;;;;;4416350;32;20225;-72
2021/05/18 14:12:30;;;;;;;3.10;0.88;;;;;;;;;;4416780;32;20162;-72
2021/05/18 14:14:55;;;;;;;1.90;0.87;;;;;;;;;;4430058;32;20469;-70
2021/05/18 14:17:20;;;;;;;4.00;1.30;;;;;;;;;;4412543;32;20316;-71
2021/05/18 14:19:45;;;;;;;3.40;1.33;;;;;;;;;;4432529;32;20202;-70
2021/05/18 14:22:10;;;;;;;3.33;1.50;;;;;;;;;;4418913;32;20195;-71
2021/05/18 14:24:45;;;;;;;1.77;1.10;;;;;;;;;;4443284;32;20245;-72
2021/05/18 14:27:18;;;;;;;2.67;0.90;;;;;;;;;;4420428;32;20612;-71
2021/05/18 14:29:43;;;;;;;3.12;1.00;;;;;;;;;;4423761;32;20504;-69
2021/05/18 14:32:08;;;;;;;2.40;0.80;;;;;;;;;;4430741;32;20149;-72
2021/05/18 14:34:33;;;;;;;2.22;0.88;;;;;;;;;;4415103;32;20300;-71
2021/05/18 14:36:58;;;;;;;1.55;0.80;;;;;;;;;;4438571;32;20191;-71
2021/05/18 14:39:35;;;;;;;2.37;1.00;;;;;;;;;;4430589;32;20847;-71
2021/05/18 14:44:44;;;;;;;2.60;1.30;;;;;;;;;;4444047;32;20466;-70
2021/05/18 14:47:15;;;;;;;3.30;1.25;;;;;;;;;;4443518;32;20543;-71
2021/05/18 14:55:21;;;;;;;2.05;0.70;;;;;;;;;;4414546;32;20601;-71
2021/05/18 14:57:46;;;;;;;2.30;0.90;;;;;;;;;;4412771;32;20192;-70
2021/05/18 15:00:11;;;;;;;3.42;1.02;;;;;;;;;;4419565;32;20149;-71
2021/05/18 15:02:37;;;;;;;3.37;1.00;;;;;;;;;;4427481;32;20272;-71
2021/05/18 15:05:02;;;;;;;2.35;1.02;;;;;;;;;;4427615;32;20142;-70
2021/05/18 15:07:27;;;;;;;2.87;0.90;;;;;;;;;;4428755;32;20245;-71
2021/05/18 15:09:52;;;;;;;3.50;1.50;;;;;;;;;;4415763;32;20193;-71
2021/05/18 15:12:18;;;;;;;3.62;1.62;;;;;;;;;;4417999;32;20313;-70
2021/05/18 15:14:43;;;;;;;3.47;1.30;;;;;;;;;;4432828;32;20213;-70
2021/05/18 15:17:08;;;;;;;2.37;1.45;;;;;;;;;;4434242;32;20218;-70
2021/05/18 15:19:34;;;;;;;3.03;0.80;;;;;;;;;;4434674;32;20529;-70
2021/05/18 15:21:59;;;;;;;1.90;1.00;;;;;;;;;;4435231;32;20135;-71
2021/05/18 15:24:25;;;;;;;2.35;1.00;;;;;;;;;;4435573;32;20157;-70
2021/05/18 15:26:50;;;;;;;2.58;1.60;;;;;;;;;;4435304;32;20529;-71
2021/05/18 15:29:16;;;;;;;2.70;1.35;;;;;;;;;;4436675;32;20171;-71
2021/05/18 15:31:41;;;;;;;5.87;1.20;;;;;;;;;;4436406;32;20141;-70
2021/05/18 15:34:06;;;;;;;3.72;0.80;;;;;;;;;;4436774;32;20191;-71
2021/05/18 15:36:32;;;;;;;4.50;1.25;;;;;;;;;;4423275;32;20547;-71
2021/05/18 15:38:57;;;;;;;3.67;1.13;;;;;;;;;;4437120;32;20320;-72
2021/05/18 15:41:22;;;;;;;2.50;1.12;;;;;;;;;;4435382;32;20315;-71
2021/05/18 15:43:48;;;;;;;2.15;0.90;;;;;;;;;;4437856;32;20225;-71
2021/05/18 15:46:13;;;;;;;1.17;0.90;;;;;;;;;;4422976;32;20141;-69
2021/05/18 15:48:39;;;;;;;2.75;1.15;;;;;;;;;;4435569;32;20141;-69
2021/05/18 15:51:04;;;;;;;2.05;0.98;;;;;;;;;;4417547;32;20157;-69
2021/05/18 15:53:29;;;;;;;3.53;1.30;;;;;;;;;;4420131;32;20184;-70
2021/05/18 15:55:54;;;;;;;2.15;1.15;;;;;;;;;;4421241;32;20153;-69
2021/05/18 15:58:20;;;;;;;1.37;1.20;;;;;;;;;;4404846;32;20161;-69
2021/05/18 16:00:47;;;;;;;3.70;2.37;;;;;;;;;;4432208;32;20184;-69
2021/05/18 16:03:13;;;;;;;5.35;1.70;;;;;;;;;;4435065;32;20356;-70
2021/05/18 16:05:38;;;;;;;4.87;1.58;;;;;;;;;;4435196;32;20222;-68
2021/05/18 16:08:08;;;;;;;3.83;1.67;;;;;;;;;;4434400;32;20211;-70
2021/05/18 16:10:33;;;;;;;4.62;1.70;;;;;;;;;;4434988;32;20145;-69
2021/05/18 16:12:58;;;;;;;3.63;1.50;;;;;;;;;;4434272;32;20566;-70
2021/05/18 16:15:23;;;;;;;3.03;1.42;;;;;;;;;;4418537;32;20344;-69
2021/05/18 16:17:49;;;;;;;6.77;1.57;;;;;;;;;;4432494;32;20218;-70
2021/05/18 16:20:14;;;;;;;7.15;6.03;;;;;;;;;;4432706;32;20217;-69
2021/05/18 16:22:39;;;;;;;2.90;1.58;;;;;;;;;;4432009;32;20675;-69
2021/05/18 16:25:05;;;;;;;3.60;1.50;;;;;;;;;;4435141;32;20267;-69
2021/05/18 16:27:30;;;;;;;3.00;1.30;;;;;;;;;;4420013;32;20665;-69
2021/05/18 16:29:55;;;;;;;2.67;1.30;;;;;;;;;;4420853;32;20214;-70
2021/05/18 16:32:20;;;;;;;2.60;1.20;;;;;;;;;;4432734;32;20156;-69
2021/05/18 16:34:45;;;;;;;4.35;1.50;;;;;;;;;;4419031;32;20260;-69
2021/05/18 16:37:11;;;;;;;2.78;1.30;;;;;;;;;;4421081;32;20222;-69
2021/05/18 16:39:37;;;;;;;2.33;1.10;;;;;;;;;;4429682;32;20275;-69
2021/05/18 16:42:02;;;;;;;3.28;1.55;;;;;;;;;;4435389;32;20134;-70
2021/05/18 16:44:27;;;;;;;2.83;1.45;;;;;;;;;;4425996;32;20552;-70
2021/05/18 16:46:52;;;;;;;2.78;1.48;;;;;;;;;;4427287;32;20160;-70
2021/05/18 16:49:18;;;;;;;2.30;1.10;;;;;;;;;;4433300;32;20514;-69
2021/05/18 16:51:43;;;;;;;3.78;1.10;;;;;;;;;;4434619;32;20253;-69
2021/05/18 16:54:10;;;;;;;3.03;1.48;;;;;;;;;;4433072;32;20510;-69
2021/05/18 16:56:36;;;;;;;3.58;1.50;;;;;;;;;;4432745;32;20542;-70
2021/05/18 16:59:01;;;;;;;2.10;1.08;;;;;;;;;;4433171;32;20168;-70
2021/05/18 17:01:26;;;;;;;2.78;1.17;;;;;;;;;;4431381;32;20196;-70
2021/05/18 17:03:52;;;;;;;3.05;0.90;;;;;;;;;;4431880;32;20138;-70
2021/05/18 17:06:17;;;;;;;3.42;1.10;;;;;;;;;;4416836;32;20276;-70
2021/05/18 17:08:42;;;;;;;3.53;1.23;;;;;;;;;;4425107;32;20668;-69
2021/05/18 17:11:08;;;;;;;1.65;1.10;;;;;;;;;;4418230;32;20408;-77
2021/05/18 17:13:35;;;;;;;2.12;1.08;;;;;;;;;;4418357;32;20218;-75
2021/05/18 17:16:00;;;;;;;4.35;1.77;;;;;;;;;;4418768;32;20172;-76
2021/05/18 17:18:25;;;;;;;2.15;1.10;;;;;;;;;;4418251;32;20202;-72
2021/05/18 17:20:51;;;;;;;3.42;1.35;;;;;;;;;;4403358;32;20226;-69
2021/05/18 17:23:16;;;;;;;4.18;1.62;;;;;;;;;;4404127;32;20162;-69
2021/05/18 17:25:42;;;;;;;5.30;1.60;;;;;;;;;;4418579;32;20553;-69
2021/05/18 17:28:07;;;;;;;2.55;1.25;;;;;;;;;;4432478;32;20149;-67
2021/05/18 17:30:32;;;;;;;2.97;1.25;;;;;;;;;;4418779;32;20199;-69
2021/05/18 17:32:57;;;;;;;2.83;1.30;;;;;;;;;;4433034;32;20129;-68
2021/05/18 17:35:23;;;;;;;2.97;1.00;;;;;;;;;;4419423;32;20461;-68
2021/05/18 17:37:49;;;;;;;3.58;1.10;;;;;;;;;;4432229;32;20133;-68
2021/05/18 17:40:14;;;;;;;2.25;1.30;;;;;;;;;;4432837;32;20205;-69
2021/05/18 17:42:40;;;;;;;3.85;1.58;;;;;;;;;;4434112;32;20134;-69
2021/05/18 17:45:07;;;;;;;2.83;1.17;;;;;;;;;;4418650;32;20206;-68
2021/05/18 17:47:32;;;;;;;4.28;1.27;;;;;;;;;;4419292;32;20169;-70
2021/05/18 17:49:58;;;;;;;2.87;1.30;;;;;;;;;;4418034;32;20161;-69
2021/05/18 17:52:23;;;;;;;3.33;1.20;;;;;;;;;;4432280;32;20157;-68
2021/05/18 17:54:48;;;;;;;2.47;1.08;;;;;;;;;;4432202;32;20484;-68
2021/05/18 17:57:14;;;;;;;3.35;1.25;;;;;;;;;;4433045;32;20157;-68
2021/05/18 17:59:39;;;;;;;5.97;1.30;;;;;;;;;;4420180;32;20188;-68
2021/05/18 18:02:09;;;;;;;3.45;1.30;;;;;;;;;;4418303;32;20165;-71
2021/05/18 18:04:35;;;;;;;3.53;1.30;;;;;;;;;;4420262;32;20227;-70
2021/05/18 18:07:00;;;;;;;4.03;1.25;;;;;;;;;;4434366;32;20134;-69
2021/05/18 18:09:26;;;;;;;4.35;1.33;;;;;;;;;;4432488;32;20198;-70
2021/05/18 18:11:51;;;;;;;2.35;1.10;;;;;;;;;;4432755;32;20133;-69
2021/05/18 18:14:17;;;;;;;2.58;1.10;;;;;;;;;;4434794;32;20156;-69
2021/05/18 18:16:42;;;;;;;2.45;1.10;;;;;;;;;;4432646;32;20125;-67
2021/05/18 18:19:07;;;;;;;3.85;1.00;;;;;;;;;;4433688;32;20126;-68
2021/05/18 18:21:32;;;;;;;3.35;1.20;;;;;;;;;;4418363;32;20178;-68
2021/05/18 18:23:58;;;;;;;2.92;1.33;;;;;;;;;;4433074;32;20129;-68
2021/05/18 18:26:25;;;;;;;3.45;1.10;;;;;;;;;;4420155;32;20195;-68
2021/05/18 18:28:51;;;;;;;2.35;1.10;;;;;;;;;;4433515;32;20141;-69
2021/05/18 18:31:16;;;;;;;4.90;1.10;;;;;;;;;;4432002;32;20171;-68
2021/05/18 18:33:41;;;;;;;4.25;1.60;;;;;;;;;;4432610;32;20132;-70
2021/05/18 18:36:06;;;;;;;3.58;1.33;;;;;;;;;;4431262;32;20141;-69
2021/05/18 18:38:32;;;;;;;3.78;1.40;;;;;;;;;;4419735;32;20161;-70
2021/05/18 18:40:57;;;;;;;3.35;1.20;;;;;;;;;;4419827;32;20506;-68
2021/05/18 18:43:22;;;;;;;6.47;2.15;;;;;;;;;;4433309;32;20125;-70
2021/05/18 18:45:48;;;;;;;2.45;1.30;;;;;;;;;;4435820;32;20137;-70
2021/05/18 18:48:15;;;;;;;3.53;1.25;;;;;;;;;;4436868;32;20138;-69
2021/05/18 18:50:42;;;;;;;3.67;1.33;;;;;;;;;;4437722;32;20168;-70
2021/05/18 18:55:36;;;;;;;3.05;1.40;;;;;;;;;;4437900;32;20183;-69
2021/05/18 18:58:02;;;;;;;3.17;1.60;;;;;;;;;;4437219;32;20572;-70
2021/05/18 19:00:27;;;;;;;2.50;1.60;;;;;;;;;;4438964;32;20518;-69
2021/05/18 19:03:02;;;;;;;2.67;1.50;;;;;;;;;;4431219;32;20216;-70
2021/05/18 19:13:10;;;;;;;4.57;1.90;;;;;;;;;;4425110;32;20233;-71
2021/05/18 19:15:35;;;;;;;3.65;1.65;;;;;;;;;;4408411;32;20452;-73
2021/05/18 19:18:00;;;;;;;2.90;1.50;;;;;;;;;;4429909;32;20539;-70
2021/05/18 19:20:25;;;;;;;3.00;1.90;;;;;;;;;;4419580;32;20286;-72
2021/05/18 19:22:51;;;;;;;3.55;1.60;;;;;;;;;;4437234;32;20255;-71
2021/05/18 19:25:16;;;;;;;5.10;1.80;;;;;;;;;;4424403;32;20504;-71
2021/05/18 19:27:45;;;;;;;4.37;1.90;;;;;;;;;;4422669;32;20166;-72